• Join FlightAware (Why Join?)
  • Login
  • US Flag 
10:50PM EDT


 

Airport Tracker/Info


-or-


 

Live Flight TrackerFlight Track Log ✈ EGF2935 ✈ 07-May-2013 ✈ KMSN - KDFW

Flight Track Log - Related Links

Times and Time Zones

All times are in EDT time to prevent confusion due to time zone crossing. See the EGF2935 flight status page for this flight to view local times or setup timezone preferences in your user account.

Time Position Orientation Groundspeed Altitude Reporting Facility
EDT Latitude Longitude Course Direction KTS MPH feet Rate Location/Type
07:31AM 43.1722 -89.4089 209° Southwest 213 245 4,100  Level Chicago Center
07:32AM 42.8610 -89.5029 200° South  Level FlightAware Approximate
07:32AM 43.1153 -89.4483 207° Southwest 223 257 6,000  Level Chicago Center
07:33AM 42.7670 -89.5499 200° South  Level FlightAware Approximate
07:33AM 43.0431 -89.4875 202° Southwest 265 305 8,400  Level Chicago Center
07:34AM 42.6770 -89.6098 206° Southwest  Level FlightAware Approximate
07:34AM 42.9725 -89.5317 205° Southwest 278 320 10,600  Level Chicago Center
07:35AM 42.5858 -89.6655 200° South  Level FlightAware Approximate
07:35AM 42.8919 -89.5772 203° Southwest 307 353 11,800  Level Chicago Center
07:36AM 42.4895 -89.7204 209° Southwest  Level FlightAware Approximate
07:36AM 42.7925 -89.6353 203° Southwest 331 381 13,400  Level Chicago Center
07:37AM 42.7025 -89.6878 203° Southwest 347 399 14,900 1,500 Climbing Chicago Center
07:38AM 42.6139 -89.7433 205° Southwest 350 403 16,500 1,440 Climbing Chicago Center
07:39AM 42.5281 -89.8108 210° Southwest 354 407 17,900 1,380 Climbing Chicago Center
07:40AM 42.4403 -89.8761 209° Southwest 358 412 19,400 1,500 Climbing Chicago Center
07:41AM 42.3525 -89.9422 209° Southwest 362 417 21,000 1,500 Climbing Chicago Center
07:42AM 42.2614 -90.0083 208° Southwest 371 427 22,500 1,500 Climbing Chicago Center
07:43AM 42.1722 -90.0758 209° Southwest 371 427 24,100 1,620 Climbing Chicago Center
07:44AM 42.0636 -90.1550 208° Southwest 372 428 25,900 1,440 Climbing Chicago Center
07:45AM 41.9725 -90.2211 208° Southwest 373 429 27,100 1,080 Climbing Chicago Center
07:46AM 41.8817 -90.2875 209° Southwest 374 430 28,200 960 Climbing Chicago Center
07:47AM 41.7842 -90.3583 208° Southwest 387 445 29,200 1,020 Climbing Chicago Center
07:48AM 41.6892 -90.4267 208° Southwest 388 447 30,300 1,020 Climbing Chicago Center
07:49AM 41.5933 -90.4975 209° Southwest 393 452 31,300 960 Climbing Chicago Center
07:50AM 41.4953 -90.5656 207° Southwest 397 457 32,400 1,020 Climbing Chicago Center
07:51AM 41.3953 -90.6381 209° Southwest 405 466 33,400 1,020 Climbing Chicago Center
07:52AM 41.2753 -90.7242 208° Southwest 409 471 34,600 1,080 Climbing Chicago Center
07:53AM 41.1747 -90.7950 208° Southwest 410 472 35,700 660 Climbing Chicago Center
07:54AM 41.0753 -90.8656 208° Southwest 408 470 36,000 120 Climbing Chicago Center
07:55AM 40.9742 -90.9369 208° Southwest 413 475 36,000  Level Chicago Center
07:56AM 40.8731 -91.0083 208° Southwest 413 475 36,000  Level Chicago Center
07:57AM 40.7717 -91.0786 208° Southwest 414 476 36,000  Level Chicago Center
07:58AM 40.6506 -91.1636 208° Southwest 413 475 36,000  Level Chicago Center
08:00AM 40.5486 -91.2333 207° Southwest 415 478 36,000  Level Chicago Center
08:01AM 40.4544 -91.2975 207° Southwest 419 482 36,000  Level Chicago Center
08:02AM 40.3519 -91.3678 208° Southwest 418 481 36,000  Level Chicago Center
08:02AM 40.2706 -91.4253 208° Southwest 417 480 36,000  Level Kansas City Center
08:03AM 40.1669 -91.4953 207° Southwest 419 482 36,000  Level Kansas City Center
08:04AM 40.0642 -91.5667 208° Southwest 419 482 36,000  Level Kansas City Center
08:05AM 39.9578 -91.6389 207° Southwest 428 493 36,000  Level Kansas City Center
08:06AM 39.8539 -91.7125 209° Southwest 427 491 36,000  Level Kansas City Center
08:07AM 39.7492 -91.7867 209° Southwest 429 494 36,000  Level Kansas City Center
08:08AM 39.6436 -91.8600 208° Southwest 430 495 36,000  Level Kansas City Center
08:09AM 39.5389 -91.9336 208° Southwest 430 495 36,000  Level Kansas City Center
08:10AM 39.4356 -92.0050 208° Southwest 425 489 36,000  Level Kansas City Center
08:11AM 39.3125 -92.0906 208° Southwest 422 486 36,000  Level Kansas City Center
08:12AM 39.2169 -92.1558 208° Southwest 423 487 36,000  Level Kansas City Center
08:13AM 39.1133 -92.2278 208° Southwest 423 487 36,000  Level Kansas City Center
08:14AM 39.0103 -92.2986 208° Southwest 420 483 36,000  Level Kansas City Center
08:15AM 38.9075 -92.3725 209° Southwest 420 483 36,000  Level Kansas City Center
08:16AM 38.7836 -92.4564 208° Southwest 419 482 36,000  Level Kansas City Center
08:17AM 38.6822 -92.5258 208° Southwest 415 478 36,000  Level Kansas City Center
08:18AM 38.5806 -92.5953 208° Southwest 414 476 36,000  Level Kansas City Center
08:20AM 38.4800 -92.6633 208° Southwest 412 474 36,000  Level Kansas City Center
08:21AM 38.3789 -92.7311 208° Southwest 411 473 36,000  Level Kansas City Center
08:22AM 38.2772 -92.7992 208° Southwest 413 475 36,000  Level Kansas City Center
08:23AM 38.1764 -92.8664 208° Southwest 411 473 36,000  Level Kansas City Center
08:24AM 38.0761 -92.9336 208° Southwest 410 472 36,000  Level Kansas City Center
08:25AM 37.9747 -93.0008 208° Southwest 412 474 36,000  Level Kansas City Center
08:26AM 37.8542 -93.0803 207° Southwest 409 471 36,000  Level Kansas City Center
08:27AM 37.7547 -93.1461 208° Southwest 405 466 36,000  Level Kansas City Center
08:28AM 37.6533 -93.2128 208° Southwest 408 470 36,000  Level Kansas City Center
08:29AM 37.5519 -93.2797 208° Southwest 410 472 36,000  Level Kansas City Center
08:30AM 37.4497 -93.3483 208° Southwest 413 475 36,000  Level Kansas City Center
08:31AM 37.3400 -93.4161 206° Southwest 431 496 36,000  Level Kansas City Center
08:32AM 37.2347 -93.4889 209° Southwest 432 497 36,000  Level Kansas City Center
08:34AM 37.0225 -93.6256 207° Southwest 433 498 36,000  Level Memphis Center
08:35AM 36.9292 -93.6917 210° Southwest 421 484 36,000  Level Memphis Center
08:36AM 36.8106 -93.7647 206° Southwest 427 491 36,000  Level Memphis Center
08:36AM 36.7908 -93.7739 200° South 436 502 36,000  Level Kansas City Center
08:37AM 36.6842 -93.8431 207° Southwest 435 501 36,000  Level Kansas City Center
08:38AM 36.5769 -93.9131 208° Southwest 433 498 36,000  Level Kansas City Center
08:39AM 36.4681 -93.9828 207° Southwest 434 499 36,000  Level Kansas City Center
08:40AM 36.3383 -94.0625 206° Southwest 439 505 36,000  Level Kansas City Center
08:41AM 36.2689 -94.1100 209° Southwest 439 505 36,000  Level Memphis Center
08:42AM 36.1569 -94.1642 201° Southwest 439 505 36,000  Level Memphis Center
08:43AM 36.0386 -94.2150 199° South 444 511 36,000  Level Memphis Center
08:44AM 35.9222 -94.2686 200° South 444 511 36,000  Level Memphis Center
08:45AM 35.8100 -94.3219 201° Southwest 444 511 36,000  Level Memphis Center
08:46AM 35.6958 -94.3728 200° South 439 505 36,000  Level Memphis Center
08:47AM 35.5836 -94.4236 200° South 439 505 36,000  Level Memphis Center
08:48AM 35.4861 -94.4672 200° South 439 505 36,000  Level Memphis Center
08:49AM 35.3739 -94.5178 200° South 433 498 36,000  Level Memphis Center
08:50AM 35.2097 -94.5931 201° Southwest 431 496 36,000  Level Fort Worth Center
08:51AM 35.0942 -94.6453 200° South 419 482 36,000  Level Fort Worth Center
08:52AM 34.9931 -94.6992 204° Southwest 412 474 36,000  Level Fort Worth Center
08:53AM 34.9094 -94.7906 222° Southwest 400 460 36,000  Level Fort Worth Center
08:54AM 34.8342 -94.8761 223° Southwest 406 467 36,000 -240 Level Fort Worth Center
08:55AM 34.7417 -94.9472 212° Southwest 406 467 35,600 -720 Descending Fort Worth Center
08:56AM 34.6247 -94.9406 177° South 390 449 34,600 -1,200 Descending Fort Worth Center
08:57AM 34.5097 -94.9211 172° South 402 463 33,300 -1,440 Descending Fort Worth Center
08:58AM 34.3944 -94.9069 174° South 412 474 31,800 -1,500 Descending Fort Worth Center
08:59AM 34.2875 -94.9853 211° Southwest 412 474 30,300 -1,500 Descending Fort Worth Center
09:00AM 34.2208 -95.1003 235° Southwest 400 460 28,800 -1,500 Descending Fort Worth Center
09:01AM 34.1564 -95.2175 236° Southwest 407 468 27,300 -1,500 Descending Fort Worth Center
09:02AM 34.0831 -95.3372 234° Southwest 427 491 25,800 -1,500 Descending Fort Worth Center
09:03AM 34.0119 -95.4542 234° Southwest 442 509 24,300 -960 Descending Fort Worth Center
09:04AM 33.9408 -95.5708 234° Southwest 442 509 23,900 -1,080 Descending Fort Worth Center
09:05AM 33.8714 -95.6850 234° Southwest 442 509 22,200 -1,800 Descending Fort Worth Center
09:06AM 33.8061 -95.7961 235° Southwest 429 494 20,300 -1,920 Descending Fort Worth Center
09:07AM 33.7364 -95.9047 232° Southwest 424 488 18,400 -1,980 Descending Fort Worth Center
09:08AM 33.6669 -96.0233 235° Southwest 411 473 16,400 -1,860 Descending Fort Worth Center
09:09AM 33.6117 -96.1139 234° Southwest 392 451 14,700 -1,800 Descending Fort Worth Center
09:10AM 33.5458 -96.2247 235° Southwest 386 444 12,800 -1,560 Descending Fort Worth Center
09:11AM 33.4819 -96.3028 226° Southwest 373 429 11,600 -900 Descending Fort Worth Center
09:12AM 33.4094 -96.3881 224° Southwest 345 397 11,000 -300 Descending Fort Worth Center
09:13AM 33.3578 -96.4508 225° Southwest 306 352 11,000 -420 Level Fort Worth Center
09:14AM 33.2958 -96.5311 227° Southwest 301 346 10,200 -960 Descending Fort Worth Center
09:15AM 33.2672 -96.6183 249° West 291 335 9,100 -1,020 Descending Fort Worth Center
09:16AM 33.2425 -96.6981 250° West 286 329 8,200 -960 Descending Fort Worth Center
09:17AM 33.2075 -96.7903 246° West 286 329 7,200 -960 Descending Fort Worth Center
09:18AM 33.1619 -96.8525 229° Southwest 281 323 6,300 -900 Descending Fort Worth Center